Aérodrome :
LOGIN :

S'inscrire | Disclaimer

   EN    FR    IT 

 










Légende :    VFR   VFR Marginal   IFR   IFR Intensif   IFR Très Intensif
Visi : 
Plafond : 
>= 8 km
>= 3000ft
5 à 8 km
1000 à 3000 ft
1500m à 5 km
500 à 1000 ft
800 à 1500m
200 à 500 ft
< 800m
< 200 ft
Symboles :   Orages  Brouillard  Fortes neiges  Fortes précipitations  Vent > 20 kt
SIGMETs :   Divers  Orages  Givrage  Turbulence  Onde Orograph.  Cendres Volcan.






- Altitude de l'aérodrome : 796 ft
- Code IATA : SYT


LFLN - Saint-Yan

DERNIER METAR :
  • 280300Z AUTO VRB01KT 7000 -RA OVC049/// //////CB 05/04 Q1014

METARs EXPIRÉS :
  • 280230Z AUTO VRB02KT 7000 -RA //////TCU 05/04 Q1014
  • 280200Z AUTO VRB02KT 9000 -RA //////TCU 04/04 Q1014
  • 272200Z AUTO 01002KT 8000 NSC 03/02 Q1016
  • 280130Z AUTO 09003KT 7000 //////TCU 04/03 Q1014
  • 280030Z AUTO 29003KT 7000 NSC 03/02 Q1015
  • 280100Z AUTO 34004KT 6000 NSC 04/03 Q1015

Prévision TAF périmée.



MET'MAP, la Météo Aéronautique d'un coup d'oeil ! - Copyright ORBIFLY Décembre 2007 - Disclaimer

ORBIFLY MET'MAP TEAM :

Programmation & Développement : Alexandra Zaïnal
Sur une idée originale de : Baudouin d'Aumeries
Soutien technique & logistique : Manuel Goepfert
Assistance : Marc-Olivier Méhu




SOURCES & CREDITS :

   NOAA